sensor_id;sensor_type;location;lat;lon;timestamp;P1;P4;P2;P0;N10;N4;N25;N1;N05;TS
80742;SPS30;70142;50.894;6.052;2023-09-19T00:01:45;3.75;3.55;3.13;2.49;19.93;19.90;19.80;19.28;15.85;0.58
80742;SPS30;70142;50.894;6.052;2023-09-19T00:04:18;4.13;3.90;3.42;2.70;21.61;21.58;21.46;20.86;17.11;0.60
80742;SPS30;70142;50.894;6.052;2023-09-19T00:06:55;3.64;3.48;3.15;2.61;20.84;20.81;20.73;20.31;16.91;0.56
80742;SPS30;70142;50.894;6.052;2023-09-19T00:09:28;3.64;3.45;3.06;2.46;19.63;19.61;19.51;19.02;15.68;0.60
80742;SPS30;70142;50.894;6.052;2023-09-19T00:12:03;3.93;3.70;3.24;2.55;20.39;20.36;20.25;19.68;16.12;0.61
80742;SPS30;70142;50.894;6.052;2023-09-19T00:14:37;3.75;3.51;3.04;2.34;18.73;18.71;18.59;18.00;14.64;0.64
80742;SPS30;70142;50.894;6.052;2023-09-19T00:17:10;3.66;3.44;2.99;2.32;18.54;18.51;18.40;17.84;14.55;0.63
80742;SPS30;70142;50.894;6.052;2023-09-19T00:19:44;3.96;3.71;3.20;2.45;19.62;19.58;19.46;18.83;15.29;0.64
80742;SPS30;70142;50.894;6.052;2023-09-19T00:22:18;3.87;3.64;3.18;2.48;19.85;19.82;19.70;19.13;15.63;0.63
80742;SPS30;70142;50.894;6.052;2023-09-19T00:24:51;4.10;3.85;3.32;2.55;20.36;20.33;20.20;19.55;15.88;0.64
80742;SPS30;70142;50.894;6.052;2023-09-19T00:27:26;3.87;3.66;3.22;2.56;20.46;20.43;20.32;19.78;16.25;0.60
80742;SPS30;70142;50.894;6.052;2023-09-19T00:29:59;3.58;3.39;3.00;2.40;19.21;19.19;19.09;18.60;15.32;0.59
80742;SPS30;70142;50.894;6.052;2023-09-19T00:32:33;3.20;3.03;2.68;2.13;17.04;17.01;16.93;16.48;13.55;0.60
80742;SPS30;70142;50.894;6.052;2023-09-19T00:35:06;3.99;3.79;3.37;2.71;21.69;21.66;21.56;21.03;17.36;0.59
80742;SPS30;70142;50.894;6.052;2023-09-19T00:37:41;3.85;3.66;3.28;2.67;21.38;21.35;21.26;20.77;17.21;0.59
80742;SPS30;70142;50.894;6.052;2023-09-19T00:40:17;4.24;3.97;3.44;2.65;21.20;21.17;21.04;20.38;16.58;0.63
80742;SPS30;70142;50.894;6.052;2023-09-19T00:42:57;3.69;3.47;3.03;2.36;18.86;18.83;18.72;18.16;14.83;0.62
80742;SPS30;70142;50.894;6.052;2023-09-19T00:45:31;3.93;3.70;3.23;2.53;20.22;20.19;20.08;19.49;15.94;0.61
80742;SPS30;70142;50.894;6.052;2023-09-19T00:48:05;4.50;4.21;3.63;2.78;22.25;22.21;22.07;21.35;17.33;0.63
80742;SPS30;70142;50.894;6.052;2023-09-19T00:50:41;4.42;4.14;3.58;2.76;22.04;22.01;21.87;21.18;17.21;0.63
80742;SPS30;70142;50.894;6.052;2023-09-19T00:53:18;4.51;4.21;3.60;2.72;21.75;21.72;21.57;20.82;16.82;0.64
80742;SPS30;70142;50.894;6.052;2023-09-19T00:55:54;4.29;4.02;3.45;2.63;21.02;20.98;20.85;20.15;16.33;0.64
80742;SPS30;70142;50.894;6.052;2023-09-19T00:58:30;4.13;3.86;3.29;2.48;19.81;19.78;19.64;18.95;15.28;0.65
80742;SPS30;70142;50.894;6.052;2023-09-19T01:01:05;4.05;3.76;3.16;2.32;18.54;18.50;18.36;17.63;14.09;0.68
80742;SPS30;70142;50.894;6.052;2023-09-19T01:03:40;4.26;3.98;3.39;2.55;20.43;20.40;20.26;19.54;15.76;0.66
80742;SPS30;70142;50.894;6.052;2023-09-19T01:06:15;4.11;3.83;3.26;2.45;19.58;19.55;19.41;18.71;15.07;0.66
80742;SPS30;70142;50.894;6.052;2023-09-19T01:08:49;4.35;4.03;3.37;2.44;19.55;19.52;19.36;18.55;14.77;0.68
80742;SPS30;70142;50.894;6.052;2023-09-19T01:11:25;4.22;3.90;3.25;2.34;18.68;18.65;18.49;17.69;14.03;0.68
80742;SPS30;70142;50.894;6.052;2023-09-19T01:14:13;4.27;3.96;3.34;2.45;19.62;19.58;19.43;18.67;14.93;0.66
80742;SPS30;70142;50.894;6.052;2023-09-19T01:16:56;4.31;4.01;3.40;2.53;20.20;20.16;20.01;19.26;15.47;0.65
80742;SPS30;70142;50.894;6.052;2023-09-19T01:23:00;4.13;3.88;3.35;2.58;20.62;20.58;20.45;19.80;16.10;0.63
80742;SPS30;70142;50.894;6.052;2023-09-19T01:25:50;4.35;4.04;3.41;2.51;20.11;20.07;19.92;19.15;15.34;0.67
80742;SPS30;70142;50.894;6.052;2023-09-19T01:28:45;4.23;3.90;3.23;2.31;18.47;18.43;18.27;17.47;13.81;0.69
80742;SPS30;70142;50.894;6.052;2023-09-19T01:31:28;4.37;4.05;3.39;2.47;19.76;19.72;19.56;18.76;14.95;0.66
80742;SPS30;70142;50.894;6.052;2023-09-19T01:34:07;4.41;4.10;3.47;2.57;20.53;20.49;20.34;19.57;15.69;0.67
80742;SPS30;70142;50.894;6.052;2023-09-19T01:36:40;4.33;4.00;3.34;2.42;19.36;19.33;19.17;18.36;14.60;0.68
80742;SPS30;70142;50.894;6.052;2023-09-19T01:39:14;4.25;3.93;3.27;2.36;18.89;18.85;18.69;17.89;14.20;0.68
80742;SPS30;70142;50.894;6.052;2023-09-19T01:41:51;4.32;3.98;3.30;2.36;18.85;18.81;18.65;17.82;14.10;0.69
80742;SPS30;70142;50.894;6.052;2023-09-19T01:44:35;5.21;4.80;3.95;2.78;22.21;22.16;21.95;20.93;16.45;0.70
80742;SPS30;70142;50.894;6.052;2023-09-19T01:47:19;4.68;4.29;3.51;2.44;19.51;19.46;19.28;18.33;14.34;0.70
80742;SPS30;70142;50.894;6.052;2023-09-19T01:50:02;4.97;4.57;3.75;2.63;21.04;20.99;20.79;19.81;15.55;0.70
80742;SPS30;70142;50.894;6.052;2023-09-19T01:52:46;4.74;4.37;3.62;2.58;20.66;20.61;20.43;19.52;15.43;0.69
80742;SPS30;70142;50.894;6.052;2023-09-19T01:55:26;4.45;4.10;3.39;2.41;19.31;19.27;19.09;18.24;14.40;0.68
80742;SPS30;70142;50.894;6.052;2023-09-19T01:58:04;5.00;4.63;3.89;2.84;22.76;22.71;22.53;21.63;17.26;0.65
80742;SPS30;70142;50.894;6.052;2023-09-19T02:00:45;4.54;4.21;3.54;2.59;20.74;20.70;20.53;19.72;15.75;0.66
80742;SPS30;70142;50.894;6.052;2023-09-19T02:03:25;4.97;4.61;3.87;2.82;22.58;22.54;22.36;21.46;17.12;0.66
80742;SPS30;70142;50.894;6.052;2023-09-19T02:06:02;5.04;4.64;3.80;2.66;21.27;21.22;21.02;20.01;15.70;0.68
80742;SPS30;70142;50.894;6.052;2023-09-19T02:08:42;5.25;4.79;3.84;2.57;20.60;20.54;20.32;19.18;14.77;0.73
80742;SPS30;70142;50.894;6.052;2023-09-19T02:11:19;4.85;4.46;3.65;2.54;20.30;20.25;20.06;19.08;14.93;0.70
80742;SPS30;70142;50.894;6.052;2023-09-19T02:13:52;4.79;4.43;3.70;2.69;21.49;21.45;21.27;20.39;16.23;0.68
80742;SPS30;70142;50.894;6.052;2023-09-19T02:16:26;4.11;3.84;3.30;2.51;20.05;20.02;19.89;19.22;15.56;0.66
80742;SPS30;70142;50.894;6.052;2023-09-19T02:19:04;4.95;4.59;3.85;2.82;22.55;22.51;22.33;21.43;17.11;0.68
80742;SPS30;70142;50.894;6.052;2023-09-19T02:21:37;5.03;4.63;3.81;2.67;21.40;21.35;21.15;20.16;15.84;0.70
80742;SPS30;70142;50.894;6.052;2023-09-19T02:24:12;4.86;4.47;3.68;2.58;20.65;20.60;20.41;19.45;15.28;0.70
80742;SPS30;70142;50.894;6.052;2023-09-19T02:26:47;4.31;3.97;3.29;2.34;18.72;18.68;18.52;17.69;13.97;0.70
80742;SPS30;70142;50.894;6.052;2023-09-19T02:29:20;5.32;4.88;3.98;2.76;22.06;22.00;21.79;20.71;16.17;0.72
80742;SPS30;70142;50.894;6.052;2023-09-19T02:31:54;5.43;4.99;4.07;2.83;22.64;22.59;22.37;21.27;16.64;0.69
80742;SPS30;70142;50.894;6.052;2023-09-19T02:34:29;5.07;4.64;3.75;2.55;20.43;20.38;20.17;19.10;14.81;0.72
80742;SPS30;70142;50.894;6.052;2023-09-19T02:37:03;5.36;4.94;4.09;2.90;23.22;23.17;22.96;21.93;17.31;0.69
80742;SPS30;70142;50.894;6.052;2023-09-19T02:39:36;4.73;4.38;3.67;2.68;21.43;21.39;21.21;20.35;16.23;0.66
80742;SPS30;70142;50.894;6.052;2023-09-19T02:42:10;5.20;4.82;4.03;2.93;23.42;23.38;23.19;22.23;17.70;0.67
80742;SPS30;70142;50.894;6.052;2023-09-19T02:44:44;4.77;4.39;3.61;2.54;20.29;20.24;20.06;19.11;15.02;0.70
80742;SPS30;70142;50.894;6.052;2023-09-19T02:47:18;4.77;4.39;3.61;2.54;20.33;20.28;20.09;19.15;15.06;0.69
80742;SPS30;70142;50.894;6.052;2023-09-19T02:49:53;5.23;4.82;3.98;2.82;22.58;22.53;22.32;21.31;16.81;0.68
80742;SPS30;70142;50.894;6.052;2023-09-19T02:52:26;4.87;4.49;3.69;2.60;20.81;20.77;20.58;19.62;15.43;0.68
80742;SPS30;70142;50.894;6.052;2023-09-19T02:55:00;4.74;4.37;3.61;2.55;20.44;20.40;20.21;19.29;15.21;0.69
80742;SPS30;70142;50.894;6.052;2023-09-19T02:57:33;4.84;4.48;3.75;2.73;21.88;21.83;21.66;20.77;16.56;0.67
80742;SPS30;70142;50.894;6.052;2023-09-19T03:00:07;5.27;4.87;4.03;2.88;23.01;22.96;22.76;21.75;17.19;0.68
80742;SPS30;70142;50.894;6.052;2023-09-19T03:02:42;5.01;4.59;3.74;2.58;20.64;20.59;20.39;19.36;15.10;0.71
80742;SPS30;70142;50.894;6.052;2023-09-19T03:05:18;4.75;4.36;3.57;2.48;19.85;19.81;19.62;18.66;14.60;0.71
80742;SPS30;70142;50.894;6.052;2023-09-19T03:07:53;5.48;5.00;4.01;2.69;21.53;21.48;21.24;20.06;15.46;0.72
80742;SPS30;70142;50.894;6.052;2023-09-19T03:10:27;5.57;5.04;3.94;2.50;20.03;19.97;19.71;18.40;13.82;0.75
80742;SPS30;70142;50.894;6.052;2023-09-19T03:13:02;5.92;5.36;4.22;2.71;21.69;21.63;21.35;19.99;15.10;0.75
80742;SPS30;70142;50.894;6.052;2023-09-19T03:15:36;5.69;5.16;4.06;2.62;20.95;20.88;20.62;19.32;14.61;0.76
80742;SPS30;70142;50.894;6.052;2023-09-19T03:18:11;5.37;4.88;3.87;2.53;20.23;20.17;19.93;18.72;14.26;0.75
80742;SPS30;70142;50.894;6.052;2023-09-19T03:20:53;6.06;5.47;4.26;2.67;21.42;21.35;21.07;19.63;14.67;0.75
80742;SPS30;70142;50.894;6.052;2023-09-19T03:23:28;5.41;4.93;3.95;2.64;21.10;21.04;20.81;19.64;15.10;0.71
80742;SPS30;70142;50.894;6.052;2023-09-19T03:26:01;4.93;4.54;3.73;2.62;20.95;20.90;20.71;19.73;15.50;0.67
80742;SPS30;70142;50.894;6.052;2023-09-19T03:28:38;4.85;4.46;3.66;2.57;20.58;20.53;20.34;19.38;15.23;0.68
80742;SPS30;70142;50.894;6.052;2023-09-19T03:31:12;5.11;4.69;3.83;2.66;21.29;21.24;21.03;20.00;15.64;0.71
80742;SPS30;70142;50.894;6.052;2023-09-19T03:33:46;5.51;5.05;4.10;2.81;22.48;22.43;22.20;21.06;16.38;0.71
80742;SPS30;70142;50.894;6.052;2023-09-19T03:36:21;5.18;4.77;3.92;2.75;21.97;21.92;21.72;20.69;16.25;0.70
80742;SPS30;70142;50.894;6.052;2023-09-19T03:38:54;5.12;4.70;3.83;2.65;21.22;21.17;20.96;19.92;15.56;0.71
80742;SPS30;70142;50.894;6.052;2023-09-19T03:41:27;4.48;4.11;3.35;2.31;18.48;18.44;18.25;17.33;13.52;0.70
80742;SPS30;70142;50.894;6.052;2023-09-19T03:44:01;4.82;4.40;3.53;2.37;18.98;18.93;18.73;17.69;13.64;0.72
80742;SPS30;70142;50.894;6.052;2023-09-19T03:46:35;5.68;5.21;4.23;2.91;23.33;23.27;23.04;21.87;17.04;0.71
80742;SPS30;70142;50.894;6.052;2023-09-19T03:49:08;5.08;4.69;3.90;2.81;22.45;22.41;22.22;21.26;16.86;0.69
80742;SPS30;70142;50.894;6.052;2023-09-19T03:51:43;5.14;4.73;3.90;2.76;22.11;22.06;21.86;20.86;16.44;0.69
80742;SPS30;70142;50.894;6.052;2023-09-19T03:54:16;4.95;4.53;3.67;2.51;20.11;20.06;19.85;18.83;14.63;0.71
80742;SPS30;70142;50.894;6.052;2023-09-19T03:56:51;5.69;5.15;4.04;2.58;20.63;20.57;20.30;18.98;14.29;0.75
80742;SPS30;70142;50.894;6.052;2023-09-19T03:59:25;5.19;4.71;3.72;2.42;19.36;19.31;19.07;17.90;13.59;0.72
80742;SPS30;70142;50.894;6.052;2023-09-19T04:02:00;5.58;5.09;4.10;2.77;22.15;22.10;21.86;20.67;15.97;0.71
80742;SPS30;70142;50.894;6.052;2023-09-19T04:04:34;5.20;4.76;3.84;2.61;20.88;20.82;20.61;19.51;15.11;0.72
80742;SPS30;70142;50.894;6.052;2023-09-19T04:07:09;5.38;4.89;3.91;2.58;20.69;20.63;20.39;19.21;14.71;0.73
80742;SPS30;70142;50.894;6.052;2023-09-19T04:09:42;5.73;5.22;4.18;2.79;22.33;22.27;22.02;20.77;15.96;0.73
80742;SPS30;70142;50.894;6.052;2023-09-19T04:12:18;5.86;5.35;4.28;2.86;22.88;22.81;22.56;21.29;16.37;0.74
80742;SPS30;70142;50.894;6.052;2023-09-19T04:14:51;5.64;5.15;4.13;2.77;22.14;22.09;21.84;20.62;15.88;0.74
80742;SPS30;70142;50.894;6.052;2023-09-19T04:17:25;5.12;4.69;3.81;2.62;21.00;20.95;20.74;19.69;15.34;0.71
80742;SPS30;70142;50.894;6.052;2023-09-19T04:19:58;5.22;4.78;3.89;2.67;21.41;21.35;21.14;20.07;15.63;0.70
80742;SPS30;70142;50.894;6.052;2023-09-19T04:22:33;5.08;4.66;3.81;2.65;21.19;21.14;20.93;19.91;15.58;0.71
80742;SPS30;70142;50.894;6.052;2023-09-19T04:25:09;5.44;5.02;4.16;2.97;23.76;23.70;23.50;22.45;17.75;0.70
80742;SPS30;70142;50.894;6.052;2023-09-19T04:27:42;4.84;4.44;3.62;2.49;19.94;19.89;19.70;18.70;14.58;0.73
80742;SPS30;70142;50.894;6.052;2023-09-19T04:30:17;5.99;5.46;4.36;2.88;23.09;23.03;22.77;21.45;16.43;0.76
80742;SPS30;70142;50.894;6.052;2023-09-19T04:32:53;5.91;5.38;4.29;2.83;22.69;22.62;22.36;21.06;16.12;0.76
80742;SPS30;70142;50.894;6.052;2023-09-19T04:35:26;6.03;5.45;4.28;2.72;21.81;21.74;21.46;20.06;15.09;0.79
80742;SPS30;70142;50.894;6.052;2023-09-19T04:38:02;5.63;5.10;4.00;2.55;20.41;20.34;20.08;18.77;14.13;0.79
80742;SPS30;70142;50.894;6.052;2023-09-19T04:40:37;6.07;5.49;4.30;2.73;21.89;21.82;21.54;20.12;15.12;0.80
80742;SPS30;70142;50.894;6.052;2023-09-19T04:43:12;6.21;5.64;4.48;2.93;23.48;23.41;23.13;21.75;16.58;0.75
80742;SPS30;70142;50.894;6.052;2023-09-19T04:45:45;5.93;5.38;4.25;2.75;21.99;21.92;21.65;20.30;15.38;0.76
80742;SPS30;70142;50.894;6.052;2023-09-19T04:48:19;5.05;4.61;3.71;2.50;20.02;19.97;19.75;18.68;14.42;0.73
80742;SPS30;70142;50.894;6.052;2023-09-19T04:50:52;5.61;5.13;4.13;2.78;22.29;22.23;21.99;20.79;16.06;0.73
80742;SPS30;70142;50.894;6.052;2023-09-19T04:53:29;5.23;4.77;3.83;2.56;20.48;20.43;20.20;19.07;14.68;0.74
80742;SPS30;70142;50.894;6.052;2023-09-19T04:56:02;5.69;5.17;4.11;2.70;21.61;21.55;21.30;20.03;15.28;0.75
80742;SPS30;70142;50.894;6.052;2023-09-19T04:58:38;5.52;5.02;4.00;2.63;21.06;21.00;20.75;19.53;14.92;0.74
80742;SPS30;70142;50.894;6.052;2023-09-19T05:01:11;5.69;5.18;4.13;2.73;21.89;21.83;21.58;20.33;15.57;0.74
80742;SPS30;70142;50.894;6.052;2023-09-19T05:03:47;5.54;5.07;4.09;2.78;22.26;22.21;21.98;20.81;16.13;0.74
80742;SPS30;70142;50.894;6.052;2023-09-19T05:06:23;5.23;4.74;3.73;2.39;19.16;19.10;18.86;17.66;13.34;0.76
80742;SPS30;70142;50.894;6.052;2023-09-19T05:08:59;5.59;5.08;4.04;2.65;21.26;21.20;20.95;19.71;15.05;0.73
80742;SPS30;70142;50.894;6.052;2023-09-19T05:11:32;5.69;5.17;4.10;2.67;21.41;21.35;21.09;19.81;15.08;0.75
80742;SPS30;70142;50.894;6.052;2023-09-19T05:14:05;5.63;5.11;4.04;2.63;21.03;20.96;20.71;19.44;14.76;0.75
80742;SPS30;70142;50.894;6.052;2023-09-19T05:16:39;5.60;5.05;3.91;2.42;19.38;19.31;19.04;17.69;13.12;0.78
80742;SPS30;70142;50.894;6.052;2023-09-19T05:19:12;6.12;5.51;4.24;2.58;20.69;20.62;20.32;18.81;13.84;0.79
80742;SPS30;70142;50.894;6.052;2023-09-19T05:21:45;5.98;5.38;4.14;2.53;20.26;20.19;19.90;18.43;13.57;0.77
80742;SPS30;70142;50.894;6.052;2023-09-19T05:24:21;6.01;5.40;4.15;2.52;20.20;20.13;19.83;18.35;13.48;0.78
80742;SPS30;70142;50.894;6.052;2023-09-19T05:26:58;5.58;5.05;3.96;2.52;20.22;20.16;19.90;18.61;14.00;0.75
80742;SPS30;70142;50.894;6.052;2023-09-19T05:29:31;4.85;4.42;3.53;2.35;18.78;18.73;18.52;17.46;13.40;0.73
80742;SPS30;70142;50.894;6.052;2023-09-19T05:32:05;5.74;5.25;4.24;2.87;23.00;22.94;22.70;21.49;16.64;0.72
80742;SPS30;70142;50.894;6.052;2023-09-19T05:34:38;5.35;4.87;3.88;2.56;20.50;20.45;20.21;19.03;14.56;0.75
80742;SPS30;70142;50.894;6.052;2023-09-19T05:37:11;5.23;4.75;3.76;2.45;19.58;19.53;19.29;18.11;13.77;0.76
80742;SPS30;70142;50.894;6.052;2023-09-19T05:39:49;5.80;5.23;4.08;2.56;20.54;20.47;20.19;18.82;14.07;0.78
80742;SPS30;70142;50.894;6.052;2023-09-19T05:42:22;5.60;5.06;3.95;2.48;19.90;19.84;19.57;18.25;13.65;0.78
80742;SPS30;70142;50.894;6.052;2023-09-19T05:44:55;5.46;4.95;3.89;2.50;20.04;19.97;19.72;18.47;13.96;0.77
80742;SPS30;70142;50.894;6.052;2023-09-19T05:47:30;5.70;5.19;4.15;2.76;22.07;22.01;21.77;20.52;15.75;0.74
80742;SPS30;70142;50.894;6.052;2023-09-19T05:50:03;5.24;4.78;3.83;2.56;20.46;20.41;20.18;19.04;14.64;0.73
80742;SPS30;70142;50.894;6.052;2023-09-19T05:52:39;5.22;4.75;3.78;2.48;19.88;19.82;19.59;18.43;14.07;0.73
80742;SPS30;70142;50.894;6.052;2023-09-19T05:55:15;5.32;4.81;3.79;2.43;19.44;19.38;19.13;17.91;13.52;0.74
80742;SPS30;70142;50.894;6.052;2023-09-19T05:57:49;5.27;4.80;3.83;2.54;20.37;20.31;20.08;18.93;14.52;0.72
80742;SPS30;70142;50.894;6.052;2023-09-19T06:00:23;5.49;5.01;4.01;2.68;21.45;21.39;21.15;19.96;15.35;0.73
80742;SPS30;70142;50.894;6.052;2023-09-19T06:02:59;5.22;4.75;3.80;2.51;20.13;20.07;19.84;18.70;14.33;0.74
80742;SPS30;70142;50.894;6.052;2023-09-19T06:05:32;5.58;5.06;4.00;2.59;20.73;20.67;20.42;19.15;14.52;0.75
80742;SPS30;70142;50.894;6.052;2023-09-19T06:08:08;5.35;4.84;3.80;2.42;19.38;19.32;19.07;17.83;13.42;0.76
80742;SPS30;70142;50.894;6.052;2023-09-19T06:10:43;6.38;5.79;4.58;2.97;23.75;23.68;23.39;21.94;16.64;0.75
80742;SPS30;70142;50.894;6.052;2023-09-19T06:13:18;5.16;4.72;3.80;2.57;20.54;20.49;20.27;19.17;14.82;0.72
80742;SPS30;70142;50.894;6.052;2023-09-19T06:15:52;4.86;4.46;3.66;2.55;20.41;20.37;20.17;19.20;15.05;0.71
80742;SPS30;70142;50.894;6.052;2023-09-19T06:18:25;4.91;4.53;3.73;2.65;21.17;21.12;20.93;19.97;15.75;0.68
80742;SPS30;70142;50.894;6.052;2023-09-19T06:21:01;5.43;5.02;4.16;2.98;23.84;23.79;23.58;22.55;17.85;0.68
80742;SPS30;70142;50.894;6.052;2023-09-19T06:23:37;5.42;4.99;4.09;2.87;22.95;22.90;22.68;21.61;16.96;0.71
80742;SPS30;70142;50.894;6.052;2023-09-19T06:26:13;5.41;4.93;3.95;2.64;21.10;21.05;20.81;19.64;15.10;0.73
80742;SPS30;70142;50.894;6.052;2023-09-19T06:28:46;5.79;5.27;4.19;2.76;22.10;22.04;21.78;20.50;15.66;0.73
80742;SPS30;70142;50.894;6.052;2023-09-19T06:31:19;5.44;4.93;3.89;2.51;20.12;20.06;19.81;18.58;14.07;0.75
80742;SPS30;70142;50.894;6.052;2023-09-19T06:33:54;5.62;5.11;4.05;2.65;21.21;21.15;20.90;19.63;14.95;0.74
80742;SPS30;70142;50.894;6.052;2023-09-19T06:36:27;5.72;5.23;4.20;2.83;22.63;22.57;22.33;21.10;16.28;0.73
80742;SPS30;70142;50.894;6.052;2023-09-19T06:39:01;5.47;4.98;3.97;2.62;21.00;20.94;20.70;19.49;14.92;0.75
80742;SPS30;70142;50.894;6.052;2023-09-19T06:41:37;5.60;5.11;4.09;2.72;21.78;21.72;21.47;20.25;15.55;0.74
80742;SPS30;70142;50.894;6.052;2023-09-19T06:44:14;5.23;4.78;3.84;2.59;20.73;20.68;20.45;19.34;14.93;0.72
80742;SPS30;70142;50.894;6.052;2023-09-19T06:46:49;5.51;5.04;4.10;2.81;22.49;22.43;22.21;21.07;16.39;0.72
80742;SPS30;70142;50.894;6.052;2023-09-19T06:49:23;5.27;4.84;3.97;2.76;22.12;22.07;21.86;20.80;16.30;0.72
80742;SPS30;70142;50.894;6.052;2023-09-19T06:51:57;5.26;4.83;3.93;2.72;21.76;21.71;21.49;20.42;15.94;0.70
80742;SPS30;70142;50.894;6.052;2023-09-19T06:54:34;5.12;4.70;3.84;2.67;21.38;21.33;21.12;20.09;15.72;0.70
80742;SPS30;70142;50.894;6.052;2023-09-19T06:57:09;4.90;4.48;3.61;2.44;19.51;19.46;19.25;18.21;14.07;0.73
80742;SPS30;70142;50.894;6.052;2023-09-19T06:59:42;5.06;4.63;3.75;2.55;20.44;20.38;20.17;19.11;14.83;0.72
80742;SPS30;70142;50.894;6.052;2023-09-19T07:02:16;5.44;4.97;4.01;2.71;21.72;21.66;21.43;20.28;15.68;0.72
80742;SPS30;70142;50.894;6.052;2023-09-19T07:04:50;4.96;4.56;3.73;2.59;20.73;20.68;20.48;19.48;15.24;0.71
80742;SPS30;70142;50.894;6.052;2023-09-19T07:07:23;5.25;4.83;3.96;2.78;22.26;22.21;22.00;20.96;16.47;0.71
80742;SPS30;70142;50.894;6.052;2023-09-19T07:09:56;5.01;4.62;3.82;2.71;21.69;21.64;21.45;20.48;16.16;0.70
80742;SPS30;70142;50.894;6.052;2023-09-19T07:12:31;4.66;4.33;3.66;2.71;21.67;21.63;21.47;20.65;16.55;0.67
80742;SPS30;70142;50.894;6.052;2023-09-19T07:15:04;4.86;4.50;3.76;2.73;21.81;21.77;21.59;20.69;16.47;0.68
80742;SPS30;70142;50.894;6.052;2023-09-19T07:17:39;4.61;4.27;3.56;2.58;20.62;20.57;20.40;19.55;15.54;0.68
80742;SPS30;70142;50.894;6.052;2023-09-19T07:20:12;4.10;3.79;3.15;2.26;18.08;18.04;17.88;17.11;13.56;0.67
80742;SPS30;70142;50.894;6.052;2023-09-19T07:22:48;5.44;5.03;4.18;2.99;23.95;23.89;23.69;22.66;17.95;0.69
80742;SPS30;70142;50.894;6.052;2023-09-19T07:25:22;4.66;4.31;3.60;2.61;20.85;20.80;20.63;19.77;15.72;0.68
80742;SPS30;70142;50.894;6.052;2023-09-19T07:27:57;4.69;4.35;3.64;2.65;21.21;21.17;21.00;20.14;16.05;0.68
80742;SPS30;70142;50.894;6.052;2023-09-19T07:30:35;4.30;3.99;3.36;2.46;19.67;19.63;19.48;18.71;14.94;0.66
80742;SPS30;70142;50.894;6.052;2023-09-19T07:33:10;4.33;4.01;3.37;2.47;19.75;19.71;19.56;18.78;15.00;0.66
80742;SPS30;70142;50.894;6.052;2023-09-19T07:35:45;4.28;3.97;3.33;2.42;19.37;19.33;19.18;18.39;14.66;0.66
80742;SPS30;70142;50.894;6.052;2023-09-19T07:38:19;5.01;4.63;3.83;2.73;21.85;21.80;21.61;20.65;16.32;0.68
80742;SPS30;70142;50.894;6.052;2023-09-19T07:40:53;5.26;4.82;3.92;2.69;21.56;21.51;21.29;20.21;15.74;0.70
80742;SPS30;70142;50.894;6.052;2023-09-19T07:43:28;5.02;4.60;3.74;2.57;20.54;20.49;20.28;19.25;14.99;0.70
80742;SPS30;70142;50.894;6.052;2023-09-19T07:46:04;5.40;4.94;4.00;2.73;21.82;21.76;21.54;20.41;15.83;0.71
80742;SPS30;70142;50.894;6.052;2023-09-19T07:48:40;5.21;4.76;3.83;2.58;20.67;20.62;20.39;19.28;14.89;0.71
80742;SPS30;70142;50.894;6.052;2023-09-19T07:51:20;4.90;4.49;3.65;2.50;20.01;19.97;19.76;18.75;14.58;0.69
80742;SPS30;70142;50.894;6.052;2023-09-19T07:53:53;4.99;4.56;3.69;2.50;20.04;19.98;19.77;18.72;14.51;0.70
80742;SPS30;70142;50.894;6.052;2023-09-19T07:56:27;4.93;4.56;3.80;2.75;21.96;21.92;21.73;20.81;16.53;0.66
80742;SPS30;70142;50.894;6.052;2023-09-19T07:59:02;4.94;4.59;3.87;2.85;22.78;22.74;22.56;21.68;17.35;0.66
80742;SPS30;70142;50.894;6.052;2023-09-19T08:01:35;4.86;4.48;3.69;2.60;20.84;20.80;20.61;19.65;15.48;0.70
80742;SPS30;70142;50.894;6.052;2023-09-19T08:04:09;4.90;4.50;3.68;2.56;20.47;20.42;20.22;19.23;15.04;0.70
80742;SPS30;70142;50.894;6.052;2023-09-19T08:06:42;4.95;4.56;3.77;2.67;21.36;21.32;21.13;20.17;15.91;0.69
80742;SPS30;70142;50.894;6.052;2023-09-19T08:09:16;5.10;4.70;3.88;2.74;21.94;21.89;21.69;20.69;16.30;0.70
80742;SPS30;70142;50.894;6.052;2023-09-19T08:11:56;4.16;3.84;3.18;2.28;18.22;18.18;18.02;17.23;13.64;0.69
80742;SPS30;70142;50.894;6.052;2023-09-19T08:14:31;4.95;4.56;3.75;2.64;21.16;21.11;20.92;19.94;15.69;0.71
80742;SPS30;70142;50.894;6.052;2023-09-19T08:17:05;4.19;3.87;3.21;2.30;18.44;18.40;18.24;17.45;13.82;0.70
80742;SPS30;70142;50.894;6.052;2023-09-19T08:19:40;4.26;3.96;3.34;2.47;19.74;19.70;19.56;18.80;15.06;0.67
80742;SPS30;70142;50.894;6.052;2023-09-19T08:22:14;4.38;4.05;3.37;2.42;19.37;19.33;19.17;18.34;14.54;0.67
80742;SPS30;70142;50.894;6.052;2023-09-19T08:24:48;4.81;4.42;3.63;2.54;20.36;20.32;20.13;19.17;15.05;0.69
80742;SPS30;70142;50.894;6.052;2023-09-19T08:27:21;4.94;4.52;3.67;2.51;20.09;20.04;19.84;18.81;14.63;0.72
80742;SPS30;70142;50.894;6.052;2023-09-19T08:29:59;4.70;4.34;3.60;2.56;20.52;20.48;20.30;19.40;15.33;0.69
80742;SPS30;70142;50.894;6.052;2023-09-19T08:32:34;4.27;3.97;3.34;2.44;19.56;19.52;19.37;18.60;14.86;0.68
80742;SPS30;70142;50.894;6.052;2023-09-19T08:35:07;4.52;4.21;3.57;2.65;21.23;21.19;21.04;20.25;16.27;0.67
80742;SPS30;70142;50.894;6.052;2023-09-19T08:37:41;4.72;4.38;3.68;2.70;21.57;21.53;21.36;20.51;16.38;0.68
80742;SPS30;70142;50.894;6.052;2023-09-19T08:40:17;4.58;4.23;3.52;2.52;20.18;20.14;19.97;19.10;15.14;0.69
80742;SPS30;70142;50.894;6.052;2023-09-19T08:42:50;4.45;4.11;3.41;2.45;19.57;19.53;19.36;18.52;14.67;0.68
80742;SPS30;70142;50.894;6.052;2023-09-19T08:45:27;4.54;4.16;3.37;2.31;18.46;18.41;18.23;17.28;13.43;0.71
80742;SPS30;70142;50.894;6.052;2023-09-19T08:48:03;4.51;4.09;3.23;2.09;16.73;16.68;16.47;15.45;11.71;0.75
80742;SPS30;70142;50.894;6.052;2023-09-19T08:50:56;4.37;3.99;3.24;2.21;17.66;17.62;17.44;16.53;12.83;0.71
80742;SPS30;70142;50.894;6.052;2023-09-19T08:53:36;4.26;3.90;3.16;2.16;17.26;17.22;17.04;16.15;12.54;0.72
80742;SPS30;70142;50.894;6.052;2023-09-19T08:56:18;4.81;4.38;3.50;2.31;18.50;18.45;18.24;17.18;13.15;0.75
80742;SPS30;70142;50.894;6.052;2023-09-19T08:58:55;4.50;4.12;3.33;2.27;18.16;18.12;17.93;16.98;13.17;0.71
80742;SPS30;70142;50.894;6.052;2023-09-19T09:01:34;4.57;4.20;3.43;2.38;19.03;18.98;18.80;17.87;13.97;0.69
80742;SPS30;70142;50.894;6.052;2023-09-19T09:04:10;4.21;3.86;3.16;2.20;17.63;17.58;17.42;16.57;12.98;0.70
80742;SPS30;70142;50.894;6.052;2023-09-19T09:06:45;4.88;4.49;3.68;2.57;20.54;20.49;20.30;19.32;15.14;0.70
80742;SPS30;70142;50.894;6.052;2023-09-19T09:09:20;4.57;4.19;3.41;2.34;18.76;18.71;18.52;17.58;13.69;0.70
80742;SPS30;70142;50.894;6.052;2023-09-19T09:11:53;4.55;4.19;3.45;2.44;19.51;19.47;19.29;18.40;14.49;0.70
80742;SPS30;70142;50.894;6.052;2023-09-19T09:14:28;4.15;3.84;3.20;2.31;18.48;18.44;18.29;17.51;13.91;0.69
80742;SPS30;70142;50.894;6.052;2023-09-19T09:17:03;4.04;3.75;3.17;2.34;18.73;18.69;18.55;17.84;14.29;0.66
80742;SPS30;70142;50.894;6.052;2023-09-19T09:19:37;4.34;4.03;3.41;2.52;20.14;20.10;19.95;19.19;15.38;0.66
80742;SPS30;70142;50.894;6.052;2023-09-19T09:22:11;4.79;4.41;3.63;2.56;20.45;20.40;20.22;19.27;15.16;0.70
80742;SPS30;70142;50.894;6.052;2023-09-19T09:24:53;4.89;4.49;3.68;2.57;20.53;20.48;20.29;19.31;15.13;0.70
80742;SPS30;70142;50.894;6.052;2023-09-19T09:27:29;4.81;4.43;3.65;2.57;20.54;20.50;20.31;19.36;15.23;0.70
80742;SPS30;70142;50.894;6.052;2023-09-19T09:30:06;4.79;4.40;3.59;2.50;19.98;19.94;19.74;18.78;14.69;0.70
80742;SPS30;70142;50.894;6.052;2023-09-19T09:32:42;4.99;4.57;3.71;2.55;20.43;20.38;20.18;19.15;14.92;0.70
80742;SPS30;70142;50.894;6.052;2023-09-19T09:35:35;4.32;4.00;3.34;2.42;19.36;19.32;19.16;18.37;14.61;0.67
80742;SPS30;70142;50.894;6.052;2023-09-19T09:38:08;4.77;4.42;3.70;2.70;21.59;21.55;21.38;20.51;16.35;0.69
80742;SPS30;70142;50.894;6.052;2023-09-19T09:40:48;4.41;4.05;3.30;2.28;18.22;18.18;18.00;17.09;13.34;0.73
80742;SPS30;70142;50.894;6.052;2023-09-19T09:43:26;4.12;3.80;3.15;2.25;18.01;17.97;17.81;17.02;13.46;0.69
80742;SPS30;70142;50.894;6.052;2023-09-19T09:46:08;4.63;4.28;3.55;2.54;20.35;20.31;20.13;19.25;15.25;0.69